Time;durP1;ratioP1;P1;durP2;ratioP2;P2;SDS_P1;SDS_P2;PMS_P1;PMS_P2;Temp;Humidity;BMP_temperature;BMP_pressure;BME280_temperature;BME280_humidity;BME280_pressure;Samples;Min_cycle;Max_cycle;Signal;HPM_P1;HPM_P2
2020/12/11 00:01:23;;;;;;;28.40;17.70;;;;;;;;;;5035904;28;20177;-72
2020/12/11 00:03:48;;;;;;;32.22;18.42;;;;;;;;;;5037708;28;20638;-73
2020/12/11 00:06:18;;;;;;;31.13;18.07;;;;;;;;;;5032082;28;20180;-73
2020/12/11 00:08:43;;;;;;;31.03;16.93;;;;;;;;;;5037536;28;20178;-73
2020/12/11 00:11:09;;;;;;;30.27;18.10;;;;;;;;;;5027952;28;20189;-73
2020/12/11 00:13:34;;;;;;;29.63;18.33;;;;;;;;;;5029348;28;20252;-73
2020/12/11 00:16:00;;;;;;;27.67;17.47;;;;;;;;;;5027789;28;20182;-73
2020/12/11 00:18:25;;;;;;;31.10;16.83;;;;;;;;;;5029239;28;20185;-72
2020/12/11 00:20:51;;;;;;;29.87;17.77;;;;;;;;;;5030385;28;20209;-73
2020/12/11 00:23:16;;;;;;;28.25;17.88;;;;;;;;;;5029740;28;20255;-73
2020/12/11 00:25:41;;;;;;;35.13;19.23;;;;;;;;;;5028393;28;20678;-73
2020/12/11 00:28:06;;;;;;;31.20;17.70;;;;;;;;;;5039363;28;20196;-73
2020/12/11 00:30:31;;;;;;;31.30;19.57;;;;;;;;;;5025955;28;20186;-73
2020/12/11 00:32:56;;;;;;;32.23;18.30;;;;;;;;;;5031640;28;20208;-73
2020/12/11 00:35:22;;;;;;;29.10;18.23;;;;;;;;;;5030446;28;21308;-73
2020/12/11 00:37:47;;;;;;;29.93;18.73;;;;;;;;;;5042368;28;20628;-72
2020/12/11 00:40:12;;;;;;;27.13;17.77;;;;;;;;;;5034991;28;20178;-73
2020/12/11 00:42:37;;;;;;;33.20;19.07;;;;;;;;;;5028765;28;20205;-72
2020/12/11 00:45:02;;;;;;;31.50;18.77;;;;;;;;;;5028994;28;20702;-73
2020/12/11 00:47:28;;;;;;;31.23;18.93;;;;;;;;;;5033750;28;20239;-73
2020/12/11 00:49:53;;;;;;;37.20;19.60;;;;;;;;;;5030180;28;20178;-73
2020/12/11 00:52:18;;;;;;;31.07;17.83;;;;;;;;;;5032232;28;20717;-73
2020/12/11 00:54:43;;;;;;;31.93;18.37;;;;;;;;;;5031264;28;20175;-73
2020/12/11 00:57:08;;;;;;;36.23;19.67;;;;;;;;;;5030550;28;20178;-73
2020/12/11 00:59:33;;;;;;;28.97;18.00;;;;;;;;;;5032710;28;20667;-73
2020/12/11 01:01:59;;;;;;;30.90;19.20;;;;;;;;;;5038788;28;20178;-73
2020/12/11 01:04:24;;;;;;;30.37;19.93;;;;;;;;;;5034936;28;20682;-73
2020/12/11 01:06:49;;;;;;;30.13;18.63;;;;;;;;;;5030181;28;20643;-73
2020/12/11 01:09:14;;;;;;;30.53;18.80;;;;;;;;;;5028594;28;20198;-73
2020/12/11 01:11:39;;;;;;;32.47;18.63;;;;;;;;;;5031878;28;20170;-74
2020/12/11 01:14:04;;;;;;;32.40;18.30;;;;;;;;;;5026166;28;20244;-74
2020/12/11 01:16:30;;;;;;;28.47;16.97;;;;;;;;;;5029050;28;20651;-73
2020/12/11 01:18:56;;;;;;;28.37;17.60;;;;;;;;;;5030684;28;20174;-73
2020/12/11 01:21:21;;;;;;;32.27;18.97;;;;;;;;;;5032335;28;20291;-73
2020/12/11 01:23:47;;;;;;;28.07;17.43;;;;;;;;;;5025422;28;20786;-73
2020/12/11 01:26:12;;;;;;;28.60;17.03;;;;;;;;;;5029500;28;20241;-73
2020/12/11 01:28:37;;;;;;;28.40;17.00;;;;;;;;;;5035887;28;20239;-73
2020/12/11 01:31:02;;;;;;;31.87;17.80;;;;;;;;;;5027949;28;21693;-73
2020/12/11 01:33:28;;;;;;;29.37;16.80;;;;;;;;;;5030457;28;21607;-73
2020/12/11 01:35:53;;;;;;;28.47;17.03;;;;;;;;;;5033452;28;20185;-73
2020/12/11 01:38:18;;;;;;;23.87;15.77;;;;;;;;;;5032993;28;20249;-73
2020/12/11 01:40:44;;;;;;;27.03;16.67;;;;;;;;;;5039391;28;20216;-74
2020/12/11 01:43:10;;;;;;;27.83;16.53;;;;;;;;;;5046444;28;20301;-74
2020/12/11 01:45:35;;;;;;;24.47;16.83;;;;;;;;;;5035752;28;20268;-74
2020/12/11 01:48:00;;;;;;;26.70;16.90;;;;;;;;;;5040354;28;20623;-74
2020/12/11 01:50:26;;;;;;;29.27;16.57;;;;;;;;;;5034114;28;20192;-74
2020/12/11 01:52:51;;;;;;;24.37;16.10;;;;;;;;;;5037622;28;20236;-74
2020/12/11 01:55:16;;;;;;;24.97;16.07;;;;;;;;;;5031126;28;20267;-74
2020/12/11 01:58:07;;;;;;;26.03;16.40;;;;;;;;;;5031440;28;20209;-74
2020/12/11 02:00:36;;;;;;;26.30;16.20;;;;;;;;;;5030936;28;20667;-74
2020/12/11 02:03:05;;;;;;;26.27;15.63;;;;;;;;;;5035810;28;20209;-73
2020/12/11 02:05:30;;;;;;;24.10;15.17;;;;;;;;;;5027843;28;20667;-74
2020/12/11 02:07:56;;;;;;;27.50;16.70;;;;;;;;;;5027311;28;20181;-74
2020/12/11 02:10:21;;;;;;;28.40;16.00;;;;;;;;;;5026800;28;21009;-74
2020/12/11 02:12:47;;;;;;;28.13;15.63;;;;;;;;;;5029720;28;20304;-74
2020/12/11 02:15:12;;;;;;;27.03;17.00;;;;;;;;;;5026295;28;20913;-74
2020/12/11 02:17:37;;;;;;;27.27;16.30;;;;;;;;;;5032955;28;20209;-74
2020/12/11 02:20:02;;;;;;;27.00;15.00;;;;;;;;;;5028286;28;20197;-74
2020/12/11 02:22:27;;;;;;;26.27;15.73;;;;;;;;;;5031589;28;20201;-74
2020/12/11 02:24:53;;;;;;;24.30;14.77;;;;;;;;;;5029295;28;20182;-74
2020/12/11 02:27:18;;;;;;;25.60;15.40;;;;;;;;;;5030796;28;20182;-74
2020/12/11 02:29:43;;;;;;;23.83;14.23;;;;;;;;;;5039599;28;20186;-73
2020/12/11 02:32:13;;;;;;;24.20;14.17;;;;;;;;;;5038586;28;20585;-74
2020/12/11 02:34:38;;;;;;;26.60;15.50;;;;;;;;;;5035858;28;21247;-74
2020/12/11 02:37:04;;;;;;;28.57;16.60;;;;;;;;;;5028926;28;20556;-74
2020/12/11 02:39:29;;;;;;;26.87;16.87;;;;;;;;;;5028177;28;20177;-74
2020/12/11 02:41:54;;;;;;;26.03;15.50;;;;;;;;;;5027620;28;20757;-73
2020/12/11 02:44:20;;;;;;;24.50;14.53;;;;;;;;;;5026890;28;20205;-74
2020/12/11 02:46:45;;;;;;;26.57;15.07;;;;;;;;;;5026970;28;20550;-74
2020/12/11 02:49:10;;;;;;;23.87;15.80;;;;;;;;;;5028036;28;20174;-74
2020/12/11 02:51:35;;;;;;;22.23;13.97;;;;;;;;;;5031983;28;20615;-74
2020/12/11 02:54:00;;;;;;;23.80;15.13;;;;;;;;;;5027821;28;21027;-74
2020/12/11 02:56:26;;;;;;;23.77;14.53;;;;;;;;;;5032141;28;20186;-74
2020/12/11 02:58:51;;;;;;;22.25;14.27;;;;;;;;;;5028668;28;20190;-74
2020/12/11 03:01:16;;;;;;;22.23;14.20;;;;;;;;;;5029112;28;20178;-74
2020/12/11 03:03:42;;;;;;;20.27;14.27;;;;;;;;;;5024357;28;20771;-74
2020/12/11 03:06:07;;;;;;;25.93;16.33;;;;;;;;;;5030497;28;20643;-74
2020/12/11 03:08:33;;;;;;;23.07;15.13;;;;;;;;;;5029028;28;20188;-74
2020/12/11 03:10:58;;;;;;;24.87;15.43;;;;;;;;;;5028138;28;20174;-74
2020/12/11 03:13:23;;;;;;;26.03;13.83;;;;;;;;;;5028285;28;20770;-74
2020/12/11 03:15:48;;;;;;;23.87;15.43;;;;;;;;;;5027308;28;20184;-74
2020/12/11 03:18:14;;;;;;;20.50;13.97;;;;;;;;;;5032171;28;20231;-74
2020/12/11 03:20:39;;;;;;;24.93;15.60;;;;;;;;;;5029560;28;20189;-74
2020/12/11 03:23:04;;;;;;;23.00;14.03;;;;;;;;;;5047045;28;20213;-74
2020/12/11 03:25:29;;;;;;;25.27;15.47;;;;;;;;;;5032503;28;20880;-74
2020/12/11 03:27:55;;;;;;;27.80;16.63;;;;;;;;;;5036530;28;20214;-74
2020/12/11 03:30:20;;;;;;;23.77;14.43;;;;;;;;;;5030007;28;20189;-74
2020/12/11 03:32:45;;;;;;;24.07;16.40;;;;;;;;;;5030030;28;20303;-74
2020/12/11 03:35:10;;;;;;;29.50;17.17;;;;;;;;;;5055839;28;20674;-74
2020/12/11 03:37:35;;;;;;;29.17;15.60;;;;;;;;;;5051536;28;20177;-74
2020/12/11 03:40:00;;;;;;;28.97;15.73;;;;;;;;;;5034666;28;20200;-74
2020/12/11 03:42:26;;;;;;;27.00;14.93;;;;;;;;;;5030713;28;20206;-74
2020/12/11 03:44:51;;;;;;;22.80;14.20;;;;;;;;;;5032739;28;20195;-73
2020/12/11 03:47:16;;;;;;;22.93;15.13;;;;;;;;;;5031235;28;20226;-74
2020/12/11 03:49:41;;;;;;;25.37;14.43;;;;;;;;;;5027596;28;21052;-74
2020/12/11 03:52:06;;;;;;;22.27;14.60;;;;;;;;;;5035022;28;20209;-74
2020/12/11 03:54:32;;;;;;;21.17;14.60;;;;;;;;;;5033334;28;20575;-74
2020/12/11 03:56:57;;;;;;;21.53;13.93;;;;;;;;;;5032144;28;20189;-74
2020/12/11 03:59:22;;;;;;;24.30;14.13;;;;;;;;;;5037457;28;20571;-74
2020/12/11 04:01:47;;;;;;;25.17;15.33;;;;;;;;;;5029804;28;20197;-74
2020/12/11 04:04:12;;;;;;;21.23;13.83;;;;;;;;;;5031604;28;20241;-74
2020/12/11 04:06:38;;;;;;;22.23;14.13;;;;;;;;;;5036049;28;20604;-73
2020/12/11 04:09:03;;;;;;;20.43;14.00;;;;;;;;;;5031372;28;20828;-74
2020/12/11 04:11:28;;;;;;;22.63;14.63;;;;;;;;;;5033919;28;20205;-74
2020/12/11 04:13:53;;;;;;;23.00;13.57;;;;;;;;;;5029390;28;20209;-74
2020/12/11 04:16:19;;;;;;;21.93;13.80;;;;;;;;;;5030530;28;20178;-74
2020/12/11 04:18:44;;;;;;;19.87;13.63;;;;;;;;;;5029088;28;20782;-74
2020/12/11 04:21:13;;;;;;;21.42;13.75;;;;;;;;;;5032231;28;20328;-74
2020/12/11 04:23:38;;;;;;;21.30;13.23;;;;;;;;;;5030201;28;22249;-74
2020/12/11 04:26:04;;;;;;;23.67;14.67;;;;;;;;;;5027915;28;20194;-74
2020/12/11 04:28:29;;;;;;;21.27;14.53;;;;;;;;;;5030983;28;20225;-74
2020/12/11 04:30:54;;;;;;;22.57;15.00;;;;;;;;;;5028354;28;20182;-74
2020/12/11 04:33:19;;;;;;;20.43;13.63;;;;;;;;;;5030100;28;20205;-74
2020/12/11 04:35:44;;;;;;;22.77;14.57;;;;;;;;;;5034398;28;20193;-74
2020/12/11 04:38:09;;;;;;;24.83;14.97;;;;;;;;;;5023858;28;21372;-74
2020/12/11 04:40:35;;;;;;;22.07;13.20;;;;;;;;;;5028469;28;20185;-74
2020/12/11 04:43:00;;;;;;;20.83;12.77;;;;;;;;;;5030933;28;20590;-74
2020/12/11 04:45:26;;;;;;;23.97;14.60;;;;;;;;;;5029420;28;20196;-74
2020/12/11 04:47:51;;;;;;;21.83;13.90;;;;;;;;;;5032173;28;20228;-74
2020/12/11 04:50:18;;;;;;;23.17;14.67;;;;;;;;;;5030671;28;20185;-73
2020/12/11 04:52:44;;;;;;;20.87;14.10;;;;;;;;;;5049537;28;20228;-74
2020/12/11 04:55:14;;;;;;;19.97;14.00;;;;;;;;;;5029469;28;20662;-74
2020/12/11 04:57:43;;;;;;;21.70;13.77;;;;;;;;;;5031721;28;21872;-74
2020/12/11 05:00:08;;;;;;;23.30;14.30;;;;;;;;;;5032499;28;20185;-74
2020/12/11 05:02:33;;;;;;;22.50;14.53;;;;;;;;;;5034305;28;20209;-74
2020/12/11 05:04:58;;;;;;;20.47;12.37;;;;;;;;;;5039646;28;20194;-73
2020/12/11 05:07:23;;;;;;;25.57;14.53;;;;;;;;;;5030639;28;20196;-74
2020/12/11 05:09:55;;;;;;;24.97;13.50;;;;;;;;;;5029904;28;20190;-74
2020/12/11 05:12:22;;;;;;;20.83;13.53;;;;;;;;;;5009842;28;579646;-74
2020/12/11 05:14:47;;;;;;;21.57;13.43;;;;;;;;;;5030244;28;20221;-74
2020/12/11 05:17:12;;;;;;;22.53;13.77;;;;;;;;;;5029778;28;20272;-74
2020/12/11 05:19:51;;;;;;;22.90;13.57;;;;;;;;;;5029676;28;20324;-74
2020/12/11 05:22:16;;;;;;;24.17;14.23;;;;;;;;;;5030504;28;20190;-74
2020/12/11 05:24:43;;;;;;;21.60;13.63;;;;;;;;;;5030959;28;20201;-74
2020/12/11 05:27:26;;;;;;;23.83;13.67;;;;;;;;;;5031021;28;20726;-75
2020/12/11 05:29:52;;;;;;;20.10;13.60;;;;;;;;;;5030333;28;20557;-74
2020/12/11 05:32:31;;;;;;;22.83;14.93;;;;;;;;;;5028804;28;20201;-74
2020/12/11 05:34:56;;;;;;;21.80;13.50;;;;;;;;;;5031407;28;20192;-74
2020/12/11 05:37:21;;;;;;;18.37;12.20;;;;;;;;;;5030569;28;20186;-73
2020/12/11 05:39:47;;;;;;;21.43;14.10;;;;;;;;;;5028178;28;20696;-74
2020/12/11 05:42:13;;;;;;;20.93;13.80;;;;;;;;;;5029112;28;20201;-74
2020/12/11 05:44:38;;;;;;;19.47;12.67;;;;;;;;;;5029631;28;20554;-72
2020/12/11 05:47:17;;;;;;;22.63;13.67;;;;;;;;;;5030945;28;20650;-72
2020/12/11 05:49:42;;;;;;;19.93;12.53;;;;;;;;;;5032832;28;20192;-74
2020/12/11 05:52:11;;;;;;;18.60;13.23;;;;;;;;;;5033036;28;20202;-73
2020/12/11 05:54:40;;;;;;;20.90;14.33;;;;;;;;;;5029010;28;20205;-73
2020/12/11 05:57:05;;;;;;;18.17;12.53;;;;;;;;;;5033225;28;20272;-74
2020/12/11 05:59:31;;;;;;;24.23;14.93;;;;;;;;;;5029735;28;20181;-73
2020/12/11 06:01:57;;;;;;;20.43;12.67;;;;;;;;;;5030912;28;20807;-73
2020/12/11 06:04:24;;;;;;;19.03;12.27;;;;;;;;;;5028490;28;20577;-73
2020/12/11 06:06:53;;;;;;;18.97;12.50;;;;;;;;;;5040426;28;20211;-73
2020/12/11 06:09:20;;;;;;;19.17;12.40;;;;;;;;;;5031307;28;20189;-73
2020/12/11 06:11:47;;;;;;;20.27;13.67;;;;;;;;;;5031729;28;20170;-73
2020/12/11 06:14:21;;;;;;;18.30;12.43;;;;;;;;;;5027999;28;20213;-74
2020/12/11 06:16:46;;;;;;;18.87;12.80;;;;;;;;;;5028757;28;20181;-73
2020/12/11 06:19:15;;;;;;;20.23;12.87;;;;;;;;;;5033120;28;20208;-73
2020/12/11 06:21:42;;;;;;;21.07;13.40;;;;;;;;;;5029707;28;20174;-73
2020/12/11 06:24:25;;;;;;;21.23;13.37;;;;;;;;;;5028260;28;20746;-73
2020/12/11 06:26:58;;;;;;;18.53;12.77;;;;;;;;;;5030986;28;20201;-73
2020/12/11 06:29:30;;;;;;;18.63;12.23;;;;;;;;;;5029218;28;20217;-73
2020/12/11 06:31:56;;;;;;;19.90;12.60;;;;;;;;;;5036571;28;20225;-74
2020/12/11 06:34:22;;;;;;;18.87;11.90;;;;;;;;;;5028482;28;20205;-73
2020/12/11 06:36:48;;;;;;;17.70;12.47;;;;;;;;;;5031331;28;20323;-73
2020/12/11 06:39:33;;;;;;;19.40;11.67;;;;;;;;;;5026696;28;20683;-73
2020/12/11 06:41:58;;;;;;;17.23;12.63;;;;;;;;;;5027021;28;20663;-73
2020/12/11 06:44:23;;;;;;;18.07;12.70;;;;;;;;;;5029647;28;20216;-73
2020/12/11 06:47:04;;;;;;;19.57;12.13;;;;;;;;;;5031211;28;20316;-73
2020/12/11 06:49:29;;;;;;;20.30;12.63;;;;;;;;;;5028381;28;20272;-74
2020/12/11 06:51:54;;;;;;;20.33;13.03;;;;;;;;;;5031051;28;20549;-74
2020/12/11 06:54:19;;;;;;;21.42;13.90;;;;;;;;;;5026811;28;20182;-74
2020/12/11 06:56:45;;;;;;;19.52;13.32;;;;;;;;;;5030628;28;20236;-74
2020/12/11 06:59:22;;;;;;;24.60;13.20;;;;;;;;;;5028884;28;20324;-74
2020/12/11 07:01:47;;;;;;;21.10;14.17;;;;;;;;;;5042787;28;20192;-74
2020/12/11 07:04:12;;;;;;;19.63;12.97;;;;;;;;;;5024325;28;20201;-73
2020/12/11 07:06:37;;;;;;;19.30;13.37;;;;;;;;;;5031134;28;20185;-74
2020/12/11 07:09:03;;;;;;;19.73;13.00;;;;;;;;;;5031007;28;20238;-74
2020/12/11 07:11:28;;;;;;;21.57;14.37;;;;;;;;;;5030087;28;20174;-74
2020/12/11 07:13:53;;;;;;;19.53;13.43;;;;;;;;;;5027013;28;20691;-74
2020/12/11 07:16:19;;;;;;;20.80;13.33;;;;;;;;;;5027900;28;20239;-74
2020/12/11 07:18:44;;;;;;;19.33;13.23;;;;;;;;;;5026611;28;20189;-74
2020/12/11 07:21:10;;;;;;;18.97;13.27;;;;;;;;;;5025617;28;20740;-74
2020/12/11 07:23:35;;;;;;;20.17;12.00;;;;;;;;;;5027334;28;20210;-75
2020/12/11 07:26:02;;;;;;;20.73;13.67;;;;;;;;;;5028047;28;20238;-75
2020/12/11 07:28:28;;;;;;;19.17;12.60;;;;;;;;;;5029184;28;21086;-75
2020/12/11 07:30:53;;;;;;;21.13;13.13;;;;;;;;;;5028828;28;20177;-75
2020/12/11 07:33:18;;;;;;;21.23;13.77;;;;;;;;;;5026472;28;20510;-75
2020/12/11 07:35:44;;;;;;;23.80;13.40;;;;;;;;;;5024553;28;20186;-75
2020/12/11 07:38:10;;;;;;;21.63;13.23;;;;;;;;;;5027493;28;20189;-75
2020/12/11 07:40:35;;;;;;;18.57;12.70;;;;;;;;;;5028169;28;20182;-75
2020/12/11 07:43:02;;;;;;;21.43;12.37;;;;;;;;;;5028930;28;20582;-74
2020/12/11 07:45:30;;;;;;;22.17;13.20;;;;;;;;;;5029006;28;20182;-74
2020/12/11 07:47:55;;;;;;;21.70;13.07;;;;;;;;;;5032599;28;20182;-74
2020/12/11 07:50:21;;;;;;;22.27;14.20;;;;;;;;;;5030330;28;20227;-74
2020/12/11 07:52:47;;;;;;;21.00;12.90;;;;;;;;;;5024202;28;20628;-74
2020/12/11 07:55:12;;;;;;;24.27;13.97;;;;;;;;;;5026828;28;20720;-74
2020/12/11 07:57:37;;;;;;;19.23;13.60;;;;;;;;;;5030735;28;20186;-74
2020/12/11 08:00:04;;;;;;;17.33;12.63;;;;;;;;;;5027934;28;20178;-73
2020/12/11 08:02:31;;;;;;;23.97;14.90;;;;;;;;;;5026402;28;20233;-74
2020/12/11 08:04:57;;;;;;;22.13;13.57;;;;;;;;;;5027454;28;20205;-74
2020/12/11 08:07:23;;;;;;;19.23;12.83;;;;;;;;;;5037634;28;20174;-74
2020/12/11 08:09:48;;;;;;;16.80;11.53;;;;;;;;;;5032308;28;20192;-75
2020/12/11 08:12:17;;;;;;;19.93;12.10;;;;;;;;;;5034879;28;20209;-75
2020/12/11 08:14:42;;;;;;;18.07;12.80;;;;;;;;;;5035530;28;20236;-74
2020/12/11 08:17:09;;;;;;;16.97;12.30;;;;;;;;;;5032304;28;21508;-74
2020/12/11 08:19:35;;;;;;;20.20;13.13;;;;;;;;;;5030764;28;20193;-74
2020/12/11 08:22:13;;;;;;;19.03;12.57;;;;;;;;;;5030913;28;20201;-75
2020/12/11 08:24:39;;;;;;;19.30;12.50;;;;;;;;;;5030755;28;20201;-75
2020/12/11 08:27:04;;;;;;;20.60;13.70;;;;;;;;;;5037489;28;20177;-74
2020/12/11 08:29:30;;;;;;;19.60;13.03;;;;;;;;;;5029399;28;20182;-74
2020/12/11 08:31:55;;;;;;;19.90;13.40;;;;;;;;;;5034020;28;20264;-75
2020/12/11 08:34:20;;;;;;;17.47;12.67;;;;;;;;;;5029927;28;20243;-74
2020/12/11 08:36:46;;;;;;;17.97;13.10;;;;;;;;;;5034665;28;20817;-73
2020/12/11 08:39:17;;;;;;;19.37;13.23;;;;;;;;;;5029217;28;20177;-73
2020/12/11 08:42:07;;;;;;;19.87;12.67;;;;;;;;;;5035476;28;20178;-72
2020/12/11 08:49:47;;;;;;;16.40;12.20;;;;;;;;;;5029964;28;20186;-73
2020/12/11 08:52:13;;;;;;;21.53;12.97;;;;;;;;;;5032898;28;20206;-73
2020/12/11 08:54:39;;;;;;;18.47;12.83;;;;;;;;;;5029042;28;20184;-73
2020/12/11 08:57:04;;;;;;;19.30;13.20;;;;;;;;;;5032729;28;20177;-72
2020/12/11 08:59:29;;;;;;;21.27;13.97;;;;;;;;;;5029753;28;20178;-72
2020/12/11 09:01:54;;;;;;;20.30;13.83;;;;;;;;;;5032776;28;20264;-72
2020/12/11 09:04:20;;;;;;;20.10;12.53;;;;;;;;;;5029211;28;20205;-73
2020/12/11 09:06:45;;;;;;;17.53;12.43;;;;;;;;;;5033453;28;20226;-73
2020/12/11 09:09:10;;;;;;;18.37;12.27;;;;;;;;;;5035023;28;20228;-73
2020/12/11 09:11:35;;;;;;;16.37;12.07;;;;;;;;;;5030438;28;20289;-72
2020/12/11 09:14:00;;;;;;;18.77;12.07;;;;;;;;;;5031844;28;20236;-72
2020/12/11 09:16:26;;;;;;;20.03;13.20;;;;;;;;;;5035253;28;20232;-73
2020/12/11 09:18:51;;;;;;;19.83;12.77;;;;;;;;;;5029331;28;20190;-73
2020/12/11 09:21:16;;;;;;;19.83;13.87;;;;;;;;;;5030731;28;20798;-73
2020/12/11 09:23:41;;;;;;;17.00;12.07;;;;;;;;;;5029498;28;20201;-73
2020/12/11 09:26:06;;;;;;;18.37;12.67;;;;;;;;;;5028004;28;20201;-73
2020/12/11 09:28:32;;;;;;;19.63;13.47;;;;;;;;;;5031496;28;20177;-73
2020/12/11 09:30:57;;;;;;;17.00;12.07;;;;;;;;;;5028183;28;20178;-72
2020/12/11 09:33:25;;;;;;;17.57;12.87;;;;;;;;;;5033565;28;20205;-74
2020/12/11 09:35:50;;;;;;;19.63;13.07;;;;;;;;;;5032497;28;20217;-73
2020/12/11 09:38:15;;;;;;;19.00;12.30;;;;;;;;;;5030106;28;20269;-73
2020/12/11 09:40:52;;;;;;;18.50;12.90;;;;;;;;;;5048021;28;20220;-74
2020/12/11 09:54:09;;;;;;;18.97;12.87;;;;;;;;;;5031909;28;20214;-74
2020/12/11 09:56:34;;;;;;;18.77;13.27;;;;;;;;;;5029158;28;20308;-74
2020/12/11 09:59:12;;;;;;;22.60;12.87;;;;;;;;;;5031572;28;21041;-74
2020/12/11 10:04:09;;;;;;;16.53;11.57;;;;;;;;;;5027218;28;20213;-75
2020/12/11 10:06:34;;;;;;;16.27;12.17;;;;;;;;;;5032305;28;20182;-74
2020/12/11 10:08:59;;;;;;;15.50;11.77;;;;;;;;;;5028181;28;20186;-75
2020/12/11 10:11:24;;;;;;;18.17;12.80;;;;;;;;;;5025175;28;20177;-75
2020/12/11 10:13:53;;;;;;;16.90;12.03;;;;;;;;;;5028844;28;20278;-75
2020/12/11 10:16:18;;;;;;;17.43;11.37;;;;;;;;;;5028528;28;20682;-73
2020/12/11 10:18:43;;;;;;;20.20;12.37;;;;;;;;;;5033761;28;20231;-74
2020/12/11 10:21:09;;;;;;;18.63;12.70;;;;;;;;;;5029988;28;20178;-74
2020/12/11 10:23:34;;;;;;;15.47;12.17;;;;;;;;;;5030891;28;20821;-74
2020/12/11 10:26:01;;;;;;;20.80;12.43;;;;;;;;;;5028562;28;20174;-74
2020/12/11 10:28:26;;;;;;;15.73;11.37;;;;;;;;;;5035647;28;20247;-74
2020/12/11 10:30:51;;;;;;;16.33;11.40;;;;;;;;;;5025872;28;20174;-74
2020/12/11 10:33:16;;;;;;;19.03;12.97;;;;;;;;;;5034171;28;20197;-74
2020/12/11 10:35:41;;;;;;;16.63;12.50;;;;;;;;;;5025316;28;20696;-75
2020/12/11 10:38:06;;;;;;;17.70;12.13;;;;;;;;;;5029338;28;20270;-74
2020/12/11 10:40:32;;;;;;;15.20;11.53;;;;;;;;;;5030990;28;20671;-74
2020/12/11 10:42:57;;;;;;;16.50;12.10;;;;;;;;;;5027524;28;20208;-74
2020/12/11 10:45:22;;;;;;;19.17;12.57;;;;;;;;;;5027444;28;20197;-74
2020/12/11 10:47:47;;;;;;;15.05;11.73;;;;;;;;;;5029639;28;20185;-74
2020/12/11 10:50:12;;;;;;;17.10;11.73;;;;;;;;;;5029496;28;20845;-75
2020/12/11 10:52:37;;;;;;;14.97;11.20;;;;;;;;;;5029805;28;20208;-75
2020/12/11 10:55:03;;;;;;;17.40;12.03;;;;;;;;;;5028329;28;20652;-74
2020/12/11 10:57:28;;;;;;;18.67;11.83;;;;;;;;;;5028574;28;21087;-75
2020/12/11 10:59:53;;;;;;;21.20;12.50;;;;;;;;;;5029578;28;20182;-72
2020/12/11 11:02:18;;;;;;;16.73;11.30;;;;;;;;;;5029492;28;20206;-73
2020/12/11 11:04:43;;;;;;;16.57;11.80;;;;;;;;;;5028467;28;20727;-74
2020/12/11 11:07:20;;;;;;;16.73;11.63;;;;;;;;;;5029970;28;20174;-75
2020/12/11 11:15:12;;;;;;;18.80;12.83;;;;;;;;;;5027572;28;20698;-73
2020/12/11 11:20:32;;;;;;;16.57;12.53;;;;;;;;;;5027255;28;20185;-75
2020/12/11 11:28:11;;;;;;;15.00;11.20;;;;;;;;;;5030727;28;20188;-75
2020/12/11 11:30:36;;;;;;;18.20;12.00;;;;;;;;;;5027529;28;20181;-75
2020/12/11 11:33:02;;;;;;;18.60;12.87;;;;;;;;;;5028564;28;20190;-73
2020/12/11 11:35:33;;;;;;;18.97;13.20;;;;;;;;;;5029874;28;20193;-72
2020/12/11 11:37:58;;;;;;;18.33;11.07;;;;;;;;;;5030170;28;20193;-73
2020/12/11 11:40:24;;;;;;;18.53;13.10;;;;;;;;;;5027097;28;20185;-75
2020/12/11 11:42:49;;;;;;;19.87;12.50;;;;;;;;;;5031389;28;20485;-74
2020/12/11 11:45:17;;;;;;;17.33;13.27;;;;;;;;;;5032641;28;20178;-74
2020/12/11 11:47:45;;;;;;;19.77;14.27;;;;;;;;;;5031245;28;20188;-73
2020/12/11 11:50:37;;;;;;;17.63;12.33;;;;;;;;;;5032238;28;20259;-72
2020/12/11 11:53:10;;;;;;;17.47;12.60;;;;;;;;;;5034511;28;20204;-73
2020/12/11 11:55:35;;;;;;;19.90;13.73;;;;;;;;;;5030476;28;20186;-73
2020/12/11 11:58:01;;;;;;;19.33;13.80;;;;;;;;;;5033785;28;20284;-72
2020/12/11 12:00:26;;;;;;;19.67;13.67;;;;;;;;;;5032276;28;20634;-73
2020/12/11 12:02:51;;;;;;;18.13;13.03;;;;;;;;;;5033006;28;20197;-75
2020/12/11 12:05:16;;;;;;;20.33;14.03;;;;;;;;;;5032185;28;20186;-73
2020/12/11 12:07:41;;;;;;;18.50;13.30;;;;;;;;;;5031576;28;20190;-73
2020/12/11 12:10:10;;;;;;;20.03;13.33;;;;;;;;;;5030735;28;20669;-73
2020/12/11 12:12:43;;;;;;;21.57;15.00;;;;;;;;;;5027539;28;20221;-73
2020/12/11 12:15:12;;;;;;;17.20;12.43;;;;;;;;;;5029863;28;20181;-73
2020/12/11 12:17:57;;;;;;;18.37;12.30;;;;;;;;;;5026308;28;20614;-73
2020/12/11 12:20:46;;;;;;;21.07;13.53;;;;;;;;;;5029536;28;20212;-74
2020/12/11 12:31:15;;;;;;;18.20;13.20;;;;;;;;;;5031851;28;20200;-73
2020/12/11 12:34:14;;;;;;;19.17;13.27;;;;;;;;;;5032225;28;20204;-73
2020/12/11 12:37:17;;;;;;;19.53;13.13;;;;;;;;;;5030257;28;20197;-74
2020/12/11 12:44:33;;;;;;;20.63;13.10;;;;;;;;;;5013624;28;20775;-74
2020/12/11 12:46:58;;;;;;;18.70;12.90;;;;;;;;;;5031953;28;20273;-73
2020/12/11 12:49:23;;;;;;;19.40;12.77;;;;;;;;;;5030354;28;20193;-74
2020/12/11 12:51:48;;;;;;;19.57;13.47;;;;;;;;;;5032357;28;20178;-74
2020/12/11 12:54:14;;;;;;;18.83;13.07;;;;;;;;;;5035224;28;20189;-73
2020/12/11 12:56:45;;;;;;;17.67;12.33;;;;;;;;;;5033563;28;20190;-73
2020/12/11 13:04:43;;;;;;;17.67;13.07;;;;;;;;;;5030789;28;20558;-73
2020/12/11 13:07:09;;;;;;;15.40;12.27;;;;;;;;;;5026512;28;20663;-73
2020/12/11 13:09:34;;;;;;;17.83;13.00;;;;;;;;;;5027098;28;20220;-73
2020/12/11 13:11:59;;;;;;;17.83;13.43;;;;;;;;;;5030036;28;20185;-73
2020/12/11 13:14:25;;;;;;;19.83;13.13;;;;;;;;;;5025889;28;20668;-73
2020/12/11 13:16:50;;;;;;;19.00;12.33;;;;;;;;;;5032400;28;20182;-73
2020/12/11 13:19:17;;;;;;;19.03;13.33;;;;;;;;;;5031664;28;20197;-73
2020/12/11 13:27:23;;;;;;;15.63;11.53;;;;;;;;;;5029400;28;20323;-75
2020/12/11 13:29:49;;;;;;;17.03;11.70;;;;;;;;;;5030272;28;20182;-73
2020/12/11 13:32:14;;;;;;;15.30;11.73;;;;;;;;;;5032631;28;20205;-73
2020/12/11 13:34:40;;;;;;;17.30;11.63;;;;;;;;;;5035229;28;20188;-73
2020/12/11 13:37:05;;;;;;;17.77;12.10;;;;;;;;;;5031283;28;20324;-73
2020/12/11 13:39:31;;;;;;;17.43;12.07;;;;;;;;;;5035763;28;20181;-73
2020/12/11 13:41:56;;;;;;;16.90;12.33;;;;;;;;;;5034654;28;20193;-73
2020/12/11 13:44:21;;;;;;;17.70;12.63;;;;;;;;;;5033788;28;22016;-74
2020/12/11 13:46:46;;;;;;;16.50;11.00;;;;;;;;;;5031883;28;20269;-74
2020/12/11 13:49:11;;;;;;;14.83;10.47;;;;;;;;;;5032008;28;20181;-74
2020/12/11 13:51:37;;;;;;;13.57;10.60;;;;;;;;;;5030336;28;20178;-74
2020/12/11 13:54:02;;;;;;;16.37;10.93;;;;;;;;;;5035247;28;20285;-74
2020/12/11 13:56:27;;;;;;;16.03;11.83;;;;;;;;;;5030699;28;20630;-74
2020/12/11 13:58:52;;;;;;;15.20;11.50;;;;;;;;;;5030520;28;20194;-74
2020/12/11 14:01:17;;;;;;;17.40;11.53;;;;;;;;;;5031854;28;20575;-74
2020/12/11 14:03:42;;;;;;;13.18;10.43;;;;;;;;;;5025444;28;20220;-74
2020/12/11 14:06:08;;;;;;;16.73;11.27;;;;;;;;;;5029196;28;20267;-74
2020/12/11 14:08:33;;;;;;;15.50;11.03;;;;;;;;;;5030529;28;20175;-74
2020/12/11 14:10:58;;;;;;;13.80;10.97;;;;;;;;;;5030668;28;20193;-73
2020/12/11 14:13:23;;;;;;;16.07;10.97;;;;;;;;;;5030635;28;20606;-74
2020/12/11 14:15:48;;;;;;;13.23;10.00;;;;;;;;;;5035566;28;20173;-74
2020/12/11 14:23:28;;;;;;;16.30;10.83;;;;;;;;;;5031612;28;20213;-74
2020/12/11 14:25:53;;;;;;;14.20;10.27;;;;;;;;;;5028590;28;20190;-74
2020/12/11 14:28:19;;;;;;;13.37;10.13;;;;;;;;;;5033633;28;20170;-74
2020/12/11 14:30:44;;;;;;;15.70;10.97;;;;;;;;;;5029261;28;20174;-74
2020/12/11 14:33:11;;;;;;;13.77;9.97;;;;;;;;;;5027217;28;20193;-74
2020/12/11 14:35:36;;;;;;;14.10;9.97;;;;;;;;;;5026851;28;20777;-74
2020/12/11 14:38:11;;;;;;;13.23;10.17;;;;;;;;;;5021654;28;20279;-74
2020/12/11 14:40:36;;;;;;;13.67;9.40;;;;;;;;;;5025737;28;20539;-74
2020/12/11 14:43:01;;;;;;;13.63;10.53;;;;;;;;;;5027611;28;20224;-74
2020/12/11 14:45:26;;;;;;;15.87;11.07;;;;;;;;;;5024007;28;20182;-74
2020/12/11 14:47:52;;;;;;;12.57;9.87;;;;;;;;;;5029488;28;20243;-74
2020/12/11 14:50:18;;;;;;;10.77;8.67;;;;;;;;;;5031518;28;20772;-74
2020/12/11 14:52:44;;;;;;;13.47;9.97;;;;;;;;;;5030434;28;20706;-74
2020/12/11 14:55:09;;;;;;;12.03;8.77;;;;;;;;;;5028498;28;20174;-74
2020/12/11 14:57:34;;;;;;;14.67;9.07;;;;;;;;;;5030446;28;20995;-74
2020/12/11 14:59:59;;;;;;;13.90;9.83;;;;;;;;;;5026107;28;20197;-74
2020/12/11 15:02:25;;;;;;;12.90;9.33;;;;;;;;;;5031888;28;20820;-74
2020/12/11 15:04:50;;;;;;;11.83;9.07;;;;;;;;;;5030463;28;20215;-74
2020/12/11 15:07:16;;;;;;;11.80;8.47;;;;;;;;;;5028345;28;20194;-74
2020/12/11 15:09:41;;;;;;;11.13;8.47;;;;;;;;;;5027581;28;20224;-74
2020/12/11 15:12:06;;;;;;;11.87;9.27;;;;;;;;;;5028971;28;20206;-74
2020/12/11 15:14:31;;;;;;;10.93;8.53;;;;;;;;;;5028896;28;20200;-74
2020/12/11 15:16:56;;;;;;;11.07;9.40;;;;;;;;;;5030734;28;20186;-74